Time;durP1;ratioP1;P1;durP2;ratioP2;P2;SDS_P1;SDS_P2;PMS_P1;PMS_P2;Temp;Humidity;BMP_temperature;BMP_pressure;BME280_temperature;BME280_humidity;BME280_pressure;Samples;Min_cycle;Max_cycle;Signal;HPM_P1;HPM_P2
2022/03/02 00:01:17;;;;;;;12.05;5.90;;;5.50;65.30;;;5.24;44.82;101988.56;5180657;28;20393;-88
2022/03/02 00:03:50;;;;;;;12.13;5.18;;;5.50;64.80;;;5.27;44.82;101991.38;5181864;28;20523;-89
2022/03/02 00:06:22;;;;;;;9.68;4.28;;;5.40;65.00;;;5.24;44.61;101991.16;5184316;28;20068;-86
2022/03/02 00:08:54;;;;;;;10.35;5.30;;;5.50;64.90;;;5.31;45.37;101993.41;5186028;28;20053;-87
2022/03/02 00:11:27;;;;;;;12.00;4.90;;;5.50;66.00;;;5.34;45.19;101993.63;5183914;28;20108;-86
2022/03/02 00:14:02;;;;;;;11.80;4.70;;;5.50;65.50;;;5.37;44.74;101996.47;5184609;28;20069;-86
2022/03/02 00:16:35;;;;;;;11.48;4.97;;;5.50;65.40;;;5.39;45.63;101997.47;5186795;28;20061;-87
2022/03/02 00:19:09;;;;;;;10.98;5.10;;;5.50;66.50;;;5.38;45.32;101998.25;5189022;28;20041;-86
2022/03/02 00:21:41;;;;;;;11.40;4.80;;;5.50;65.80;;;5.41;45.65;102001.06;5182589;28;20061;-86
2022/03/02 00:24:13;;;;;;;11.30;5.03;;;5.50;66.10;;;5.42;45.61;101987.38;5182749;28;20042;-87
2022/03/02 00:26:45;;;;;;;10.95;4.70;;;5.50;66.40;;;5.42;46.19;101995.13;5193124;28;20046;-87
2022/03/02 00:29:17;;;;;;;11.98;4.82;;;5.60;68.30;;;5.40;45.72;101986.31;5188785;28;20048;-86
2022/03/02 00:31:49;;;;;;;11.93;4.82;;;5.50;66.40;;;5.40;45.29;101988.91;5194123;28;20050;-86
2022/03/02 00:34:22;;;;;;;11.20;4.63;;;5.50;66.30;;;5.36;45.12;101986.91;5191442;28;20047;-87
2022/03/02 00:36:54;;;;;;;9.90;4.15;;;5.50;66.00;;;5.38;45.56;101987.91;5188299;28;20156;-86
2022/03/02 00:39:26;;;;;;;10.60;4.50;;;5.50;66.30;;;5.32;46.24;101984.88;5190121;28;20064;-86
2022/03/02 00:41:58;;;;;;;11.68;5.47;;;5.50;67.30;;;5.28;46.27;101988.00;5186725;28;20130;-88
2022/03/02 00:44:30;;;;;;;12.45;5.75;;;5.40;68.20;;;5.25;47.04;101985.19;5194544;28;20048;-86
2022/03/02 00:47:04;;;;;;;14.07;5.15;;;5.40;69.00;;;5.21;47.37;101986.63;5199588;28;20056;-87
2022/03/02 00:49:38;;;;;;;11.18;5.05;;;5.30;69.20;;;5.18;47.51;101979.56;5184271;28;20053;-86
2022/03/02 00:52:14;;;;;;;9.18;4.45;;;5.30;70.00;;;5.13;47.78;101982.59;5196887;28;20050;-86
2022/03/02 00:54:45;;;;;;;;;;;5.30;70.40;;;5.11;48.29;101987.66;5189394;28;20050;-88
2022/03/02 00:57:17;;;;;;;13.30;4.53;;;5.30;71.10;;;5.05;48.62;101976.84;5180765;28;19928;-86
2022/03/02 00:59:49;;;;;;;10.15;4.95;;;5.20;71.60;;;4.90;49.06;101978.28;5177118;28;20053;-86
2022/03/02 01:02:21;;;;;;;9.45;4.80;;;5.10;72.40;;;4.90;48.75;101973.09;5174737;28;20054;-87
2022/03/02 01:04:55;;;;;;;13.15;5.20;;;5.10;71.30;;;4.74;48.48;101958.09;5174551;28;20515;-86
2022/03/02 01:07:27;;;;;;;11.23;5.63;;;5.00;71.40;;;4.75;48.32;101965.06;5173768;28;20057;-86
2022/03/02 01:10:00;;;;;;;13.35;5.28;;;4.90;70.90;;;4.73;48.15;101960.56;5178406;28;20050;-87
2022/03/02 01:12:32;;;;;;;10.48;4.55;;;4.90;70.90;;;4.72;48.49;101951.03;5180152;28;20050;-86
2022/03/02 01:15:07;;;;;;;12.50;5.30;;;4.90;71.30;;;4.70;48.40;101947.44;5180119;28;20053;-86
2022/03/02 01:17:40;;;;;;;9.77;4.20;;;4.90;71.40;;;4.67;47.99;101944.59;5180280;28;20073;-87
2022/03/02 01:20:14;;;;;;;14.93;5.70;;;4.80;70.70;;;4.62;48.10;101927.06;5180077;28;20054;-86
2022/03/02 01:22:46;;;;;;;11.25;5.30;;;4.80;70.70;;;4.66;48.44;101935.06;5180178;28;20074;-86
2022/03/02 01:25:18;;;;;;;11.10;4.88;;;4.80;71.40;;;4.65;48.84;101933.25;5179522;28;20046;-86
2022/03/02 01:27:50;;;;;;;11.68;5.07;;;4.80;71.90;;;4.60;49.18;101923.47;5178995;28;20077;-87
2022/03/02 01:30:22;;;;;;;10.90;4.47;;;4.80;72.60;;;4.58;49.84;101927.63;5178828;28;20149;-87
2022/03/02 01:32:54;;;;;;;10.55;4.55;;;4.70;74.20;;;4.54;49.68;101930.75;5178338;28;20046;-87
2022/03/02 01:35:28;;;;;;;12.57;5.78;;;4.70;73.60;;;4.46;49.82;101916.34;5178093;28;20060;-86
2022/03/02 01:38:00;;;;;;;14.38;6.35;;;4.70;74.00;;;4.38;49.97;101901.97;5177664;28;20477;-86
2022/03/02 01:40:32;;;;;;;11.13;4.60;;;4.70;74.10;;;4.47;50.18;101915.56;5178084;28;20061;-87
2022/03/02 01:43:05;;;;;;;8.90;4.32;;;4.60;74.60;;;4.43;50.06;101916.09;5177683;28;20050;-86
2022/03/02 01:45:37;;;;;;;12.10;5.20;;;4.60;74.60;;;4.40;49.75;101915.88;5177417;28;20054;-86
2022/03/02 01:48:10;;;;;;;16.15;5.45;;;4.60;74.10;;;4.37;50.60;101920.81;5177782;28;20145;-85
2022/03/02 01:50:43;;;;;;;12.35;5.25;;;4.50;75.60;;;4.32;51.14;101912.72;5177202;28;20399;-86
2022/03/02 01:53:15;;;;;;;11.48;4.07;;;4.50;76.80;;;4.27;51.51;101914.03;5177610;28;20054;-85
2022/03/02 01:55:47;;;;;;;11.45;4.68;;;4.40;77.70;;;4.23;52.58;101905.91;5178708;28;20061;-85
2022/03/02 01:58:19;;;;;;;11.77;5.28;;;4.40;80.20;;;4.18;53.20;101909.84;5178248;28;20058;-86
2022/03/02 02:00:52;;;;;;;9.27;4.57;;;4.40;81.30;;;4.14;54.10;101906.13;5178984;28;20053;-87
2022/03/02 02:03:24;;;;;;;12.38;5.15;;;4.30;83.10;;;4.12;54.39;101902.53;5178416;28;20046;-86
2022/03/02 02:05:58;;;;;;;11.38;5.35;;;4.30;83.70;;;4.08;54.36;101901.38;5179792;28;20110;-86
2022/03/02 02:08:31;;;;;;;12.02;4.88;;;4.30;84.40;;;4.08;54.73;101901.38;5178399;28;20137;-87
2022/03/02 02:11:04;;;;;;;11.70;4.65;;;4.20;85.00;;;4.11;54.65;101904.97;5178133;28;20048;-86
2022/03/02 02:13:37;;;;;;;10.75;5.38;;;4.20;85.00;;;4.13;54.30;101898.25;5178366;28;20424;-87
2022/03/02 02:16:09;;;;;;;10.10;4.63;;;4.20;84.60;;;4.16;53.88;101901.06;5177688;28;20137;-86
2022/03/02 02:18:42;;;;;;;11.50;5.13;;;4.30;83.70;;;4.14;53.61;101890.63;5177524;28;20055;-86
2022/03/02 02:21:15;;;;;;;10.93;4.85;;;4.30;84.00;;;4.18;52.89;101891.78;5177797;28;20054;-89
2022/03/02 02:23:47;;;;;;;11.73;4.53;;;4.30;82.10;;;4.21;52.57;101902.31;5178023;28;20056;-86
2022/03/02 02:26:21;;;;;;;12.32;5.00;;;4.30;81.60;;;4.23;52.54;101890.44;5194660;28;20052;-86
2022/03/02 02:28:53;;;;;;;10.27;4.68;;;4.30;81.90;;;4.18;52.83;101897.84;5195149;28;20056;-86
2022/03/02 02:31:26;;;;;;;13.25;5.20;;;4.30;82.30;;;4.11;53.07;101894.63;5194797;28;20042;-85
2022/03/02 02:33:58;;;;;;;9.13;4.38;;;4.30;83.10;;;4.05;53.68;101889.94;5195494;28;20050;-86
2022/03/02 02:36:32;;;;;;;12.18;4.93;;;4.20;83.70;;;3.97;54.30;101884.13;5197420;28;20056;-89
2022/03/02 02:39:04;;;;;;;11.65;5.05;;;4.10;85.10;;;3.93;54.86;101879.53;5197733;28;20096;-86
2022/03/02 02:41:36;;;;;;;9.40;4.38;;;4.10;87.00;;;3.86;54.97;101882.41;5197230;28;20077;-87
2022/03/02 02:44:08;;;;;;;9.27;4.18;;;4.00;87.10;;;3.81;55.82;101876.00;5197044;28;20072;-86
2022/03/02 02:46:43;;;;;;;17.80;5.10;;;4.00;88.60;;;3.75;55.98;101868.66;5196315;28;20050;-85
2022/03/02 02:49:15;;;;;;;9.88;4.30;;;4.00;89.60;;;3.76;55.69;101879.88;5197334;28;20046;-86
2022/03/02 02:51:48;;;;;;;12.15;4.97;;;3.90;89.70;;;3.71;56.07;101879.50;5195405;28;20053;-87
2022/03/02 02:54:20;;;;;;;14.05;4.75;;;3.90;90.10;;;3.69;56.81;101882.75;5194372;28;20046;-86
2022/03/02 02:56:52;;;;;;;12.07;4.82;;;3.80;90.70;;;3.66;56.90;101882.53;5194863;28;20054;-85
2022/03/02 02:59:25;;;;;;;11.73;4.57;;;3.80;91.30;;;3.61;57.42;101883.81;5193501;28;20057;-87
2022/03/02 03:01:57;;;;;;;10.82;4.50;;;3.80;91.80;;;3.49;57.95;101869.16;5193443;28;20053;-88
2022/03/02 03:04:29;;;;;;;11.60;5.20;;;3.70;92.30;;;3.52;57.85;101881.38;5193510;28;20419;-87
2022/03/02 03:07:02;;;;;;;13.07;5.03;;;3.70;92.70;;;3.49;58.30;101874.31;5193318;28;20060;-88
2022/03/02 03:09:34;;;;;;;10.80;4.38;;;3.70;93.20;;;3.48;58.70;101871.63;5193726;28;20125;-87
2022/03/02 03:12:09;;;;;;;10.93;4.43;;;3.70;93.40;;;3.45;58.56;101867.09;5193873;28;20050;-88
2022/03/02 03:14:41;;;;;;;9.77;5.47;;;3.60;93.70;;;3.45;58.68;101867.09;5193916;28;20424;-88
2022/03/02 03:17:13;;;;;;;11.68;5.03;;;3.60;94.00;;;3.43;59.25;101866.09;5194921;28;20053;-87
2022/03/02 03:19:45;;;;;;;10.20;4.78;;;3.60;94.40;;;3.42;59.42;101861.72;5196009;28;20110;-88
2022/03/02 03:22:18;;;;;;;12.73;4.80;;;3.60;94.80;;;3.42;59.33;101861.72;5196003;28;20057;-88
2022/03/02 03:24:50;;;;;;;12.18;4.80;;;3.60;95.10;;;3.41;59.33;101862.50;5196214;28;20057;-87
2022/03/02 03:27:22;;;;;;;9.93;4.53;;;3.60;94.90;;;3.40;59.20;101859.81;5196956;28;20141;-87
2022/03/02 03:29:55;;;;;;;13.88;5.47;;;3.60;95.20;;;3.40;59.48;101858.13;5199597;28;20056;-87
2022/03/02 03:32:27;;;;;;;12.02;4.60;;;3.60;95.20;;;3.39;59.53;101850.25;5199013;28;20060;-86
2022/03/02 03:34:59;;;;;;;11.05;6.05;;;3.60;95.60;;;3.42;59.88;101856.56;5193725;28;20400;-87
2022/03/02 03:37:33;;;;;;;12.75;5.03;;;3.60;95.90;;;3.44;59.81;101855.00;5191996;28;20061;-87
2022/03/02 03:40:07;;;;;;;12.40;4.43;;;3.60;95.80;;;3.45;59.67;101854.22;5192279;28;20514;-88
2022/03/02 03:42:40;;;;;;;10.15;4.72;;;3.60;95.70;;;3.46;59.62;101856.06;5191304;28;20073;-88
2022/03/02 03:45:13;;;;;;;8.70;4.05;;;3.60;95.90;;;3.48;59.51;101851.00;5195070;28;20054;-87
2022/03/02 03:47:46;;;;;;;10.07;5.00;;;3.70;95.80;;;3.49;59.70;101845.06;5195323;28;20141;-86
2022/03/02 03:50:19;;;;;;;12.13;4.63;;;3.60;95.70;;;3.49;59.61;101848.53;5196876;28;20511;-86
2022/03/02 03:52:53;;;;;;;13.02;5.45;;;3.60;95.80;;;3.57;59.51;101841.41;5193317;28;20050;-87
2022/03/02 03:55:25;;;;;;;12.73;5.53;;;3.70;95.70;;;3.49;59.18;101827.03;5191724;28;20050;-86
2022/03/02 03:57:57;;;;;;;12.40;4.78;;;3.70;95.40;;;3.60;59.21;101844.25;5190552;28;20046;-86
2022/03/02 04:00:29;;;;;;;11.18;4.78;;;3.70;95.40;;;3.60;59.64;101843.34;5192395;28;20052;-87
2022/03/02 04:03:01;;;;;;;13.68;4.75;;;3.70;96.10;;;3.63;60.07;101843.59;5191911;28;20060;-88
2022/03/02 04:05:33;;;;;;;10.25;4.20;;;3.80;96.30;;;3.62;60.38;101836.63;5190783;28;20057;-87
2022/03/02 04:08:08;;;;;;;11.40;4.53;;;3.80;96.60;;;3.61;60.51;101838.31;5191093;28;20053;-88
2022/03/02 04:10:40;;;;;;;;;;;3.80;96.70;;;3.62;60.40;101839.22;5191559;28;20511;-87
2022/03/02 04:13:12;;;;;;;11.00;4.32;;;3.80;96.90;;;3.62;60.78;101840.09;5191183;28;19922;-86
2022/03/02 04:15:44;;;;;;;12.43;4.93;;;3.80;97.10;;;3.63;60.35;101841.00;5190429;28;20041;-87
2022/03/02 04:18:16;;;;;;;11.85;5.30;;;3.80;96.50;;;3.65;60.10;101835.22;5190484;28;20142;-87
2022/03/02 04:20:49;;;;;;;11.85;5.40;;;3.80;96.60;;;3.68;58.59;101839.69;5191918;28;20056;-87
2022/03/02 04:23:22;;;;;;;14.27;5.82;;;3.80;95.00;;;3.72;58.68;101836.59;5192280;28;20050;-87
2022/03/02 04:25:55;;;;;;;13.07;5.78;;;3.80;95.20;;;3.72;58.59;101821.13;5191226;28;20073;-87
2022/03/02 04:28:29;;;;;;;17.42;7.03;;;3.90;95.10;;;3.82;57.77;101833.94;5190867;28;20054;-87
2022/03/02 04:31:01;;;;;;;16.00;5.60;;;3.90;94.20;;;3.85;58.03;101825.53;5191807;28;20084;-87
2022/03/02 04:33:34;;;;;;;13.18;5.53;;;4.00;94.50;;;3.89;57.81;101825.88;5191751;28;20054;-86
2022/03/02 04:36:06;;;;;;;16.88;6.75;;;4.00;94.60;;;3.93;58.29;101827.94;5191386;28;20057;-87
2022/03/02 04:38:40;;;;;;;16.13;6.60;;;4.10;94.70;;;4.00;57.48;101819.00;5191388;28;20054;-88
2022/03/02 04:41:12;;;;;;;12.88;5.88;;;4.00;93.80;;;3.95;56.77;101805.72;5190390;28;20054;-87
2022/03/02 04:43:45;;;;;;;12.93;5.75;;;4.10;93.30;;;3.89;56.68;101796.63;5191882;28;20140;-87
2022/03/02 04:46:17;;;;;;;18.17;8.40;;;4.20;93.00;;;4.09;55.67;101817.09;5190972;28;20106;-87
2022/03/02 04:48:49;;;;;;;15.75;6.03;;;4.20;92.00;;;4.10;55.05;101816.31;5190638;28;20056;-89
2022/03/02 04:51:21;;;;;;;10.48;4.47;;;4.20;91.20;;;4.14;54.87;101817.47;5191245;28;20062;-87
2022/03/02 04:53:54;;;;;;;11.52;5.03;;;4.20;91.00;;;4.17;55.22;101817.69;5192209;28;20060;-86
2022/03/02 04:56:26;;;;;;;10.77;5.13;;;4.30;91.40;;;4.18;54.62;101809.19;5193461;28;20049;-86
2022/03/02 04:58:58;;;;;;;12.45;5.03;;;4.30;90.80;;;4.19;54.12;101809.31;5194579;28;20046;-86
2022/03/02 05:01:30;;;;;;;11.38;5.13;;;4.30;90.20;;;4.18;54.42;101798.88;5194412;28;20106;-85
2022/03/02 05:04:03;;;;;;;10.30;4.68;;;4.30;90.40;;;4.23;54.38;101810.41;5223616;23;20499;-85
2022/03/02 05:06:35;;;;;;;11.88;4.53;;;4.30;90.50;;;4.27;54.75;101815.03;5206625;28;20046;-85
2022/03/02 05:09:08;;;;;;;12.90;4.97;;;4.30;90.70;;;4.27;54.74;101809.88;5212988;28;20258;-87
2022/03/02 05:11:40;;;;;;;11.00;4.93;;;4.40;91.00;;;4.26;54.76;101802.94;5218184;28;20045;-86
2022/03/02 05:14:12;;;;;;;11.75;4.47;;;4.40;90.60;;;4.24;55.06;101810.56;5207537;28;20049;-86
2022/03/02 05:16:44;;;;;;;13.13;4.60;;;4.40;91.30;;;4.15;55.53;101778.88;5197316;28;20124;-86
2022/03/02 05:19:16;;;;;;;10.32;4.88;;;4.40;91.70;;;4.19;55.44;101782.59;5193655;28;20081;-85
2022/03/02 05:21:48;;;;;;;11.07;5.28;;;4.40;91.60;;;4.20;54.53;101800.78;5195100;28;20052;-85
2022/03/02 05:24:22;;;;;;;14.13;6.00;;;4.40;90.30;;;4.21;54.04;101799.09;5196164;28;20540;-86
2022/03/02 05:26:54;;;;;;;13.10;5.80;;;4.40;89.50;;;4.25;54.19;101802.03;5196555;28;20514;-85
2022/03/02 05:29:26;;;;;;;14.50;5.10;;;4.40;90.20;;;4.28;53.78;101793.59;5196081;28;20054;-86
2022/03/02 05:31:58;;;;;;;11.55;5.32;;;4.40;89.00;;;4.29;53.37;101791.13;5196238;28;20080;-86
2022/03/02 05:34:30;;;;;;;11.23;5.00;;;4.40;88.10;;;4.33;53.38;101794.84;5196422;28;20050;-86
2022/03/02 05:37:03;;;;;;;11.40;5.28;;;4.50;88.40;;;4.34;53.65;101796.66;5195881;28;20045;-85
2022/03/02 05:39:36;;;;;;;12.07;5.30;;;4.40;88.70;;;4.36;53.13;101800.22;5195506;28;20054;-86
2022/03/02 05:42:09;;;;;;;13.27;5.85;;;4.50;87.60;;;4.35;52.91;101799.34;5195528;28;20053;-86
2022/03/02 05:44:41;;;;;;;10.73;4.85;;;4.50;86.80;;;4.35;52.76;101803.59;5195766;28;20054;-86
2022/03/02 05:47:13;;;;;;;13.02;5.07;;;4.50;86.30;;;4.34;53.17;101805.28;5195406;28;20054;-85
2022/03/02 05:49:45;;;;;;;9.75;5.53;;;4.50;87.20;;;4.35;53.39;101803.59;5195672;28;20397;-86
2022/03/02 05:52:17;;;;;;;11.25;4.93;;;4.50;87.60;;;4.30;53.05;101789.44;5195768;28;20076;-86
2022/03/02 05:54:51;;;;;;;13.52;5.63;;;4.50;87.10;;;4.36;53.14;101805.41;5194496;28;20054;-85
2022/03/02 05:57:23;;;;;;;11.88;5.50;;;4.50;86.80;;;4.34;53.51;101804.41;5195976;28;20052;-86
2022/03/02 05:59:55;;;;;;;11.90;4.80;;;4.50;88.30;;;4.29;53.54;101798.88;5195439;28;20045;-85
2022/03/02 06:02:27;;;;;;;10.63;4.72;;;4.50;88.30;;;4.34;53.90;101813.03;5194550;28;20046;-85
2022/03/02 06:04:59;;;;;;;13.05;5.47;;;4.50;88.50;;;4.34;53.44;101806.97;5192054;28;20052;-87
2022/03/02 06:07:31;;;;;;;12.65;4.95;;;4.50;87.60;;;4.37;53.60;101817.56;5191274;28;20046;-87
2022/03/02 06:10:06;;;;;;;12.48;5.40;;;4.50;88.60;;;4.34;53.77;101815.63;5190719;28;20045;-86
2022/03/02 06:12:39;;;;;;;9.32;4.45;;;4.50;88.40;;;4.29;53.54;101811.78;5192902;28;20057;-86
2022/03/02 06:15:13;;;;;;;9.55;5.03;;;4.50;88.00;;;4.32;54.13;101814.63;5186313;28;20518;-86
2022/03/02 06:17:46;;;;;;;13.80;5.65;;;4.50;89.60;;;4.33;54.37;101815.50;5194555;28;20058;-85
2022/03/02 06:20:19;;;;;;;12.77;6.30;;;4.50;90.00;;;4.35;54.33;101809.66;5194472;28;20046;-86
2022/03/02 06:22:52;;;;;;;12.75;5.68;;;4.50;89.90;;;4.34;54.69;101812.13;5194424;28;20046;-86
2022/03/02 06:25:26;;;;;;;13.32;5.50;;;4.50;90.40;;;4.35;55.26;101816.50;5194610;28;20418;-87
2022/03/02 06:27:58;;;;;;;12.98;5.38;;;4.50;90.90;;;4.24;55.71;101799.34;5195092;28;20041;-86
2022/03/02 06:30:30;;;;;;;13.27;5.75;;;4.50;91.30;;;4.33;55.94;101811.25;5196622;28;20496;-87
2022/03/02 06:33:02;;;;;;;12.85;5.22;;;4.50;91.80;;;4.34;56.25;101810.47;5197372;28;20050;-87
2022/03/02 06:35:34;;;;;;;16.35;5.88;;;4.50;92.10;;;4.34;55.51;101812.13;5197110;28;20052;-86
2022/03/02 06:38:06;;;;;;;13.57;5.32;;;4.40;91.60;;;4.34;55.93;101806.97;5196889;28;20041;-87
2022/03/02 06:40:40;;;;;;;15.60;6.57;;;4.50;91.60;;;4.30;55.58;101792.03;5204991;28;20054;-87
2022/03/02 06:43:18;;;;;;;13.32;5.32;;;4.50;91.60;;;4.43;55.53;101805.06;5197941;28;20129;-86
2022/03/02 06:45:56;;;;;;;15.02;6.15;;;4.50;91.60;;;4.47;55.39;101811.38;5193908;28;20076;-86
2022/03/02 06:48:36;;;;;;;14.50;6.82;;;4.50;91.60;;;4.48;55.83;101803.75;5193639;28;20052;-87
2022/03/02 06:51:12;;;;;;;15.93;7.38;;;4.60;91.70;;;4.52;55.60;101810.06;5187276;28;20052;-86
2022/03/02 06:53:45;;;;;;;15.73;6.75;;;4.60;91.60;;;4.54;55.64;101814.53;5183718;28;20046;-87
2022/03/02 06:56:22;;;;;;;18.95;7.47;;;4.60;91.80;;;4.57;55.93;101811.31;5179646;28;20136;-86
2022/03/02 06:58:56;;;;;;;12.85;6.00;;;4.70;91.90;;;4.61;55.84;101809.03;5184807;28;20054;-80
2022/03/02 07:01:31;;;;;;;16.90;7.82;;;4.70;92.00;;;4.67;55.72;101802.53;5183842;28;20124;-81
2022/03/02 07:04:03;;;;;;;15.73;6.38;;;4.70;91.90;;;4.72;55.59;101796.03;5192618;28;20041;-80
2022/03/02 07:06:35;;;;;;;15.00;5.90;;;4.80;92.00;;;4.78;55.60;101788.75;5190295;28;20049;-81
2022/03/02 07:09:09;;;;;;;11.82;5.93;;;4.90;91.90;;;4.93;55.49;101789.84;5181659;28;20530;-80
2022/03/02 07:11:43;;;;;;;14.63;5.85;;;4.90;92.00;;;5.27;55.51;101810.38;5187150;28;20045;-83
2022/03/02 07:14:16;;;;;;;15.85;5.93;;;5.10;92.30;;;5.51;55.28;101811.25;5183060;28;20053;-78
2022/03/02 07:16:48;;;;;;;16.45;6.60;;;5.30;92.40;;;5.88;55.33;101814.75;5178898;28;20113;-81
2022/03/02 07:19:21;;;;;;;16.33;6.05;;;5.50;92.50;;;6.45;54.34;101814.38;5185569;28;20105;-79
2022/03/02 07:21:53;;;;;;;14.25;6.05;;;5.90;92.40;;;7.19;53.18;101813.25;5185471;28;20084;-81
2022/03/02 07:24:30;;;;;;;14.90;5.53;;;6.40;91.90;;;8.59;67.00;101809.78;5176848;28;20057;-80
2022/03/02 07:27:05;;;;;;;13.43;5.75;;;7.60;99.90;;;9.40;53.55;101810.16;5182958;28;20054;-80
2022/03/02 07:29:38;;;;;;;11.23;5.20;;;8.60;95.00;;;9.68;48.25;101814.25;5190912;28;20050;-81
2022/03/02 07:32:11;;;;;;;12.93;6.38;;;8.90;85.20;;;9.62;46.50;101814.81;5185649;28;20416;-80
2022/03/02 07:34:43;;;;;;;11.38;5.53;;;9.10;78.70;;;9.59;44.77;101830.28;5185946;28;20077;-78
2022/03/02 07:37:16;;;;;;;15.73;5.97;;;9.10;74.60;;;9.42;43.93;101831.03;5192049;28;20052;-82
2022/03/02 07:39:48;;;;;;;13.70;5.63;;;9.00;72.00;;;9.50;48.08;101820.25;5173547;28;20054;-80
2022/03/02 07:42:22;;;;;;;14.52;6.18;;;9.10;82.50;;;9.54;45.04;101830.84;5172439;28;20412;-81
2022/03/02 07:44:56;;;;;;;13.60;5.88;;;9.10;73.90;;;9.64;44.13;101835.72;5182384;28;20050;-80
2022/03/02 07:47:28;;;;;;;14.55;5.85;;;9.20;71.80;;;9.82;43.05;101834.13;5179550;28;20053;-81
2022/03/02 07:50:00;;;;;;;11.85;5.45;;;9.20;70.30;;;9.96;42.33;101833.16;5175325;28;20047;-80
2022/03/02 07:52:34;;;;;;;13.80;5.75;;;9.30;69.20;;;9.87;42.01;101829.19;5184742;28;20061;-79
2022/03/02 07:55:09;;;;;;;13.55;5.43;;;9.30;67.90;;;9.72;41.84;101826.66;5179401;28;20046;-81
2022/03/02 07:57:43;;;;;;;;;;;9.30;67.20;;;9.63;42.09;101828.72;5183914;28;20096;-81
2022/03/02 08:00:15;;;;;;;12.38;5.32;;;9.20;67.10;;;9.51;42.47;101832.44;5185682;28;19996;-83
2022/03/02 08:02:49;;;;;;;12.25;5.80;;;9.10;67.10;;;9.48;42.48;101832.28;5187315;28;20061;-80
2022/03/02 08:05:23;;;;;;;12.90;6.38;;;9.10;66.60;;;9.58;41.96;101837.97;5183452;28;20042;-79
2022/03/02 08:07:55;;;;;;;13.27;5.80;;;9.10;66.50;;;9.93;41.32;101833.00;5185422;28;20117;-81
2022/03/02 08:10:27;;;;;;;13.45;5.57;;;9.20;66.10;;;10.85;40.46;101830.00;5180041;28;20038;-82
2022/03/02 08:13:01;;;;;;;11.63;5.43;;;9.60;66.50;;;11.97;38.70;101833.66;5189939;28;20105;-80
2022/03/02 08:15:33;;;;;;;13.90;5.15;;;10.30;65.20;;;12.70;36.47;101829.03;5187825;28;20077;-82
2022/03/02 08:18:05;;;;;;;10.73;5.72;;;10.90;62.30;;;12.85;35.30;101827.91;5184083;28;20555;-82
2022/03/02 08:20:41;;;;;;;12.20;5.10;;;11.30;59.90;;;12.74;35.18;101820.50;5185538;28;20104;-79
2022/03/02 08:23:14;;;;;;;13.10;5.07;;;11.40;58.20;;;13.56;34.24;101816.84;5197484;28;20052;-80
2022/03/02 08:25:47;;;;;;;14.07;5.47;;;11.90;57.70;;;14.17;33.58;101813.91;5197633;28;20052;-83
2022/03/02 08:28:23;;;;;;;11.82;5.80;;;12.50;57.80;;;13.96;32.61;101807.91;5195611;28;20145;-79
2022/03/02 08:30:55;;;;;;;8.90;4.75;;;12.60;54.70;;;14.08;31.90;101798.75;5189293;28;20058;-81
2022/03/02 08:33:29;;;;;;;11.95;5.32;;;12.70;53.80;;;14.54;31.42;101804.75;5188340;28;20511;-80
2022/03/02 08:36:02;;;;;;;10.20;4.82;;;13.00;53.20;;;15.07;30.69;101803.06;5188817;28;20062;-79
2022/03/02 08:38:38;;;;;;;11.88;6.45;;;13.40;52.50;;;15.85;29.87;101787.09;5190021;28;20411;-78
2022/03/02 08:41:12;;;;;;;10.73;5.78;;;14.00;51.50;;;16.76;28.26;101783.47;5188337;28;20554;-80
2022/03/02 08:43:46;;;;;;;11.27;5.78;;;14.70;50.00;;;17.35;27.51;101797.16;5188297;28;20133;-79
2022/03/02 08:46:18;;;;;;;10.75;5.05;;;15.30;49.00;;;17.77;27.29;101799.00;5190949;28;20385;-79
2022/03/02 08:48:50;;;;;;;10.65;5.60;;;15.80;48.20;;;18.07;26.28;101796.13;5191912;28;20052;-79
2022/03/02 08:51:24;;;;;;;10.27;5.80;;;16.10;46.90;;;18.17;25.74;101804.22;5188707;28;20042;-79
2022/03/02 08:54:01;;;;;;;13.02;6.28;;;16.40;45.90;;;18.18;25.94;101803.34;5191687;28;20048;-79
2022/03/02 08:56:35;;;;;;;10.90;5.80;;;16.60;45.50;;;18.33;26.12;101789.59;5192542;28;20062;-79
2022/03/02 08:59:13;;;;;;;12.80;5.82;;;16.80;45.80;;;18.42;26.02;101788.84;5191608;28;20053;-80
2022/03/02 09:01:51;;;;;;;12.55;6.57;;;17.00;45.60;;;18.38;26.05;101794.94;5191950;28;20551;-80
2022/03/02 09:04:23;;;;;;;12.23;6.13;;;17.10;45.30;;;18.09;25.38;101781.19;5192110;28;20056;-80
2022/03/02 09:06:56;;;;;;;9.65;5.70;;;17.00;43.60;;;17.62;25.79;101773.16;5194168;28;20397;-81
2022/03/02 09:09:28;;;;;;;13.68;6.07;;;16.80;44.00;;;17.17;26.91;101786.19;5208262;28;20136;-79
2022/03/02 09:12:00;;;;;;;11.57;5.93;;;16.60;44.70;;;16.58;26.73;101768.03;5192211;28;20088;-80
2022/03/02 09:14:33;;;;;;;11.98;5.82;;;16.20;44.00;;;15.87;27.11;101765.25;5192169;28;20041;-79
2022/03/02 09:17:06;;;;;;;10.63;6.10;;;15.70;44.00;;;15.24;27.77;101766.78;5190982;28;20068;-78
2022/03/02 09:19:39;;;;;;;13.88;6.50;;;15.20;44.40;;;14.88;28.58;101770.06;5192881;28;20068;-80
2022/03/02 09:22:11;;;;;;;14.27;5.30;;;14.80;45.60;;;14.53;34.37;101760.97;5191555;28;20054;-80
2022/03/02 09:24:44;;;;;;;13.15;6.05;;;14.40;53.40;;;14.53;31.75;101763.59;5191220;28;20050;-79
2022/03/02 09:27:19;;;;;;;12.63;6.18;;;14.40;49.30;;;14.45;31.13;101770.28;5190926;28;20137;-79
2022/03/02 09:29:54;;;;;;;12.82;5.30;;;14.20;49.50;;;14.36;31.70;101763.91;5190399;28;20049;-80
2022/03/02 09:32:27;;;;;;;14.05;5.30;;;14.10;50.10;;;14.26;29.65;101758.28;5190287;28;20054;-79
2022/03/02 09:35:00;;;;;;;11.80;5.75;;;14.00;47.10;;;14.06;29.70;101747.97;5190441;28;20054;-83
2022/03/02 09:37:35;;;;;;;10.75;5.03;;;13.80;47.90;;;14.05;30.07;101747.91;5196538;28;20044;-82
2022/03/02 09:40:12;;;;;;;9.85;5.25;;;13.70;47.70;;;14.06;30.17;101747.06;5197135;28;20054;-84
2022/03/02 09:42:55;;;;;;;8.70;4.97;;;13.70;47.90;;;14.06;29.76;101736.59;5198260;28;20050;-82
2022/03/02 09:45:32;;;;;;;10.80;5.40;;;13.70;47.30;;;13.86;28.05;101741.13;5195230;28;20046;-85
2022/03/02 09:48:05;;;;;;;8.77;5.25;;;13.60;45.10;;;13.63;29.05;101735.06;5195917;28;20396;-82
2022/03/02 09:50:39;;;;;;;10.77;4.75;;;13.40;46.40;;;13.39;29.37;101728.88;5198844;28;20137;-81
2022/03/02 09:53:14;;;;;;;9.70;4.90;;;13.20;45.90;;;13.05;28.57;101717.06;5198221;28;20050;-81
2022/03/02 09:55:47;;;;;;;12.27;5.43;;;13.00;45.00;;;12.90;29.04;101722.56;5199046;28;20045;-83
2022/03/02 09:58:22;;;;;;;13.07;5.80;;;12.80;45.90;;;12.65;29.18;101720.72;5198261;28;20419;-81
2022/03/02 10:00:57;;;;;;;;;;;12.60;45.70;;;12.41;29.50;101722.31;5203302;28;20060;-81
2022/03/02 10:03:37;;;;;;;11.55;5.57;;;12.40;45.90;;;12.45;30.15;101716.34;5198605;28;19928;-81
2022/03/02 10:06:09;;;;;;;14.77;5.30;;;12.30;46.90;;;12.54;30.13;101721.97;5198830;28;20069;-81
2022/03/02 10:08:50;;;;;;;11.82;5.18;;;12.40;47.00;;;12.55;30.01;101718.53;5198183;28;20061;-82
2022/03/02 10:11:24;;;;;;;10.80;4.93;;;12.40;46.70;;;12.60;29.76;101734.44;5197482;28;20049;-81
2022/03/02 10:13:58;;;;;;;11.27;4.60;;;12.40;46.90;;;12.56;28.84;101730.78;5198068;28;20046;-82
2022/03/02 10:16:34;;;;;;;9.73;4.90;;;12.40;45.80;;;12.62;29.73;101725.81;5200533;28;20060;-82
2022/03/02 10:19:08;;;;;;;8.65;4.82;;;12.40;46.30;;;12.65;29.30;101730.25;5198800;28;20112;-82
2022/03/02 10:21:43;;;;;;;10.45;5.00;;;12.40;45.90;;;12.63;32.02;101722.34;5199025;28;20057;-82
2022/03/02 10:24:20;;;;;;;8.93;4.82;;;12.40;49.20;;;12.63;31.01;101713.59;5198836;28;20064;-84
2022/03/02 10:26:57;;;;;;;8.65;4.88;;;12.50;48.40;;;12.95;30.28;101722.75;5198186;28;20052;-81
2022/03/02 10:29:36;;;;;;;9.52;4.80;;;12.70;47.80;;;13.19;30.71;101710.63;5199697;28;20046;-81
2022/03/02 10:32:16;;;;;;;8.23;4.75;;;12.80;47.80;;;13.40;30.07;101717.56;5199916;28;20092;-83
2022/03/02 10:34:51;;;;;;;10.73;4.45;;;13.00;47.60;;;13.53;30.25;101710.22;5199333;28;20056;-81
2022/03/02 10:37:35;;;;;;;9.43;4.75;;;13.20;48.00;;;13.58;29.44;101708.66;5197628;28;20137;-82
2022/03/02 10:40:15;;;;;;;10.02;4.68;;;13.30;46.80;;;13.44;29.73;101690.66;5198769;28;20053;-80
2022/03/02 10:42:55;;;;;;;8.02;4.38;;;13.30;46.70;;;13.48;30.14;101719.63;5201245;28;20049;-83